Overview Statistics Trail Chart Weather Telemetry Raw packets
 

This is the latest recevied weather packets stored in our database for station/object PTG2-WX. If no packets are shown the sender has not sent any weather packets the latest 10 day(s).

<< 3 4 5 6 7 8 9 >>
Time Temp. Humidity Pressure Rain* Wind** Luminosity Snow
1788225434 15° C 82% 1017.9 hPa - - - -
1788221834 15.56° C 80% 1018.2 hPa - - - -
1788218234 15.56° C 74% 1017.9 hPa - - - -
1788214634 16.11° C 70% 1017.6 hPa - - - -
1788211034 16.11° C 66% 1017.2 hPa - - - -
1788207434 16.67° C 66% 1017.6 hPa - - - -
1788203834 16.67° C 65% 1018 hPa - - - -
1788200234 17.22° C 63% 1018.3 hPa - - - -
1788196634 16.67° C 64% 1017.9 hPa - - - -
1788193034 17.22° C 64% 1017.4 hPa - - - -
1788189434 17.22° C 66% 1018 hPa - - - -
1788185833 17.78° C 66% 1018.3 hPa - - - -
1788182234 17.78° C 67% 1018.5 hPa - - - -
1788178637 17.78° C 69% 1018.6 hPa - - - -
1788175034 17.22° C 72% 1018.4 hPa - - - -
1788171434 17.22° C 73% 1018.6 hPa - - - -
1788167834 16.67° C 77% 1018.5 hPa - - - -
1788164234 16.11° C 80% 1018.8 hPa - - - -
1788160634 15.56° C 82% 1019.1 hPa - - - -
1788153434 15° C 85% 1018.8 hPa - - - -
1788149833 15° C 88% 1018.5 hPa - - - -
1788146234 15° C 90% 1018.5 hPa - - - -
1788142634 15° C 90% 1018.5 hPa - - - -
1788139033 15° C 89% 1018.7 hPa - - - -
1788135434 15.56° C 85% 1018.6 hPa - - - -

* Rain since midnight (hover to see other rain measurements)
** Current wind speed in m/s (hover to see current wind gust speed)